Time;durP1;ratioP1;P1;durP2;ratioP2;P2;SDS_P1;SDS_P2;PMS_P1;PMS_P2;Temp;Humidity;BMP_temperature;BMP_pressure;BME280_temperature;BME280_humidity;BME280_pressure;Samples;Min_cycle;Max_cycle;Signal;HPM_P1;HPM_P2
2022/11/22 00:01:30;;;;;;;;;5.67;2.33;;;;;-149.00;100.00;66333.84;5061267;28;45506;-81
2022/11/22 00:03:55;;;;;;;;;2.67;2.67;;;;;-149.00;100.00;66333.84;5079758;28;46388;-80
2022/11/22 00:06:29;;;;;;;;;2.33;2.33;;;;;-149.00;100.00;66333.84;5079999;28;45231;-80
2022/11/22 00:08:55;;;;;;;;;2.00;2.00;;;;;-149.00;100.00;66333.84;5061553;28;45271;-80
2022/11/22 00:11:20;;;;;;;;;3.00;3.00;;;;;-149.00;100.00;66333.84;5061625;28;46023;-81
2022/11/22 00:13:45;;;;;;;;;2.67;2.67;;;;;-149.00;100.00;66333.84;5079273;28;45553;-81
2022/11/22 00:16:11;;;;;;;;;2.33;2.33;;;;;-149.00;100.00;66333.84;5079693;28;45428;-81
2022/11/22 00:18:36;;;;;;;;;2.00;2.00;;;;;-149.00;100.00;66333.84;5079882;28;45234;-81
2022/11/22 00:21:07;;;;;;;;;4.33;2.00;;;;;-149.00;100.00;66333.84;5079813;28;45350;-80
2022/11/22 00:23:32;;;;;;;;;3.00;3.00;;;;;-149.00;100.00;66333.84;5061164;28;47052;-81
2022/11/22 00:25:58;;;;;;;;;3.33;3.33;;;;;-149.00;100.00;66333.84;5061032;28;45281;-81
2022/11/22 00:28:23;;;;;;;;;2.33;2.00;;;;;-149.00;100.00;66333.84;5079908;28;45719;-81
2022/11/22 00:30:49;;;;;;;;;4.00;3.00;;;;;-149.00;100.00;66333.84;5043517;28;46144;-81
2022/11/22 00:33:14;;;;;;;;;5.00;3.33;;;;;-149.00;100.00;66333.84;5058920;28;46551;-81
2022/11/22 00:35:39;;;;;;;;;3.00;2.00;;;;;-149.00;100.00;66333.84;5057937;28;45296;-81
2022/11/22 00:38:05;;;;;;;;;5.00;3.00;;;;;-149.00;100.00;66333.84;5059094;28;45292;-81
2022/11/22 00:40:30;;;;;;;;;2.00;2.00;;;;;-149.00;100.00;66333.84;5059035;28;45358;-80
2022/11/22 00:42:55;;;;;;;;;2.00;2.00;;;;;-149.00;100.00;66333.84;5041020;28;47816;-80
2022/11/22 00:45:23;;;;;;;;;2.33;2.33;;;;;-149.00;100.00;66333.84;5038960;28;45253;-81
2022/11/22 00:47:49;;;;;;;;;1.67;1.00;;;;;-149.00;100.00;66333.84;5035473;28;45395;-81
2022/11/22 00:50:14;;;;;;;;;1.33;1.33;;;;;-149.00;100.00;66333.84;5040507;28;47676;-81
2022/11/22 00:52:40;;;;;;;;;2.00;2.00;;;;;-149.00;100.00;66333.84;5040702;28;48609;-82
2022/11/22 00:55:06;;;;;;;;;2.67;2.67;;;;;-149.00;100.00;66333.84;5058987;28;45415;-81
2022/11/22 00:57:31;;;;;;;;;1.67;1.67;;;;;-149.00;100.00;66333.84;5049383;28;45807;-82
2022/11/22 00:59:56;;;;;;;;;2.33;1.67;;;;;-149.00;100.00;66333.84;5028707;28;46307;-82
2022/11/22 01:02:25;;;;;;;;;2.67;2.67;;;;;-149.00;100.00;66333.84;5041523;28;47108;-82
2022/11/22 01:04:50;;;;;;;;;3.33;3.00;;;;;-149.00;100.00;66333.84;5062738;28;45288;-82
2022/11/22 01:07:15;;;;;;;;;3.67;1.67;;;;;-149.00;100.00;66333.84;5061991;28;45297;-81
2022/11/22 01:09:41;;;;;;;;;2.00;2.00;;;;;-149.00;100.00;66333.84;5062373;28;45260;-81
2022/11/22 01:12:06;;;;;;;;;2.00;2.00;;;;;-149.00;100.00;66333.84;5044166;28;47664;-81
2022/11/22 01:14:32;;;;;;;;;2.00;2.00;;;;;-149.00;100.00;66333.84;5062180;28;45276;-80
2022/11/22 01:16:57;;;;;;;;;3.33;3.33;;;;;-149.00;100.00;66333.84;5062766;28;46897;-81
2022/11/22 01:19:23;;;;;;;;;2.00;2.00;;;;;-149.00;100.00;66333.84;5062120;28;45326;-82
2022/11/22 01:21:48;;;;;;;;;3.00;2.33;;;;;-149.00;100.00;66333.84;5043835;28;48091;-81
2022/11/22 01:24:16;;;;;;;;;3.67;2.00;;;;;-149.00;100.00;66333.84;5062076;28;45485;-80
2022/11/22 01:26:41;;;;;;;;;3.00;3.00;;;;;-149.00;100.00;66333.84;5044169;28;45518;-82
2022/11/22 01:29:07;;;;;;;;;0.33;0.33;;;;;-149.00;100.00;66333.84;5065442;28;45553;-80
2022/11/22 01:31:32;;;;;;;;;2.67;1.00;;;;;-149.00;100.00;66333.84;5082140;28;46239;-81
2022/11/22 01:33:59;;;;;;;;;6.00;4.00;;;;;-149.00;100.00;66333.84;5057617;28;45327;-82
2022/11/22 01:36:26;;;;;;;;;1.00;1.00;;;;;-149.00;100.00;66333.84;5072080;28;45537;-81
2022/11/22 01:38:51;;;;;;;;;2.33;2.00;;;;;-149.00;100.00;66333.84;5063574;28;45481;-82
2022/11/22 01:41:16;;;;;;;;;1.33;1.33;;;;;-149.00;100.00;66333.84;5082265;28;45302;-82
2022/11/22 01:43:42;;;;;;;;;3.00;2.67;;;;;-149.00;100.00;66333.84;5082100;28;45350;-81
2022/11/22 01:46:20;;;;;;;;;3.00;3.00;;;;;-149.00;100.00;66333.84;5082386;28;45359;-82
2022/11/22 01:49:03;;;;;;;;;3.00;3.00;;;;;-149.00;100.00;66333.84;5082006;28;45742;-82
2022/11/22 01:51:37;;;;;;;;;1.00;1.00;;;;;-149.00;100.00;66333.84;5081978;28;45579;-82
2022/11/22 01:54:11;;;;;;;;;3.67;2.33;;;;;-149.00;100.00;66333.84;5081585;28;45413;-82
2022/11/22 01:56:38;;;;;;;;;2.00;2.00;;;;;-149.00;100.00;66333.84;5082304;28;45649;-82
2022/11/22 01:59:08;;;;;;;;;2.67;2.67;;;;;-149.00;100.00;66333.84;5063631;28;47667;-82
2022/11/22 02:01:35;;;;;;;;;3.00;3.00;;;;;-149.00;100.00;66333.84;5051166;28;47024;-82
2022/11/22 02:04:05;;;;;;;;;2.00;1.67;;;;;-149.00;100.00;66333.84;5061254;28;45307;-82
2022/11/22 02:06:53;;;;;;;;;3.33;3.33;;;;;-149.00;100.00;66333.84;5061661;28;45417;-83
2022/11/22 02:09:23;;;;;;;;;3.00;2.00;;;;;-149.00;100.00;66333.84;5043065;28;46032;-82
2022/11/22 02:11:59;;;;;;;;;3.33;2.33;;;;;-149.00;100.00;66333.84;5043051;28;47279;-82
2022/11/22 02:14:30;;;;;;;;;3.33;1.33;;;;;-149.00;100.00;66333.84;5043080;28;45783;-81
2022/11/22 02:16:57;;;;;;;;;3.33;1.67;;;;;-149.00;100.00;66333.84;5043291;28;45330;-83
2022/11/22 02:19:47;;;;;;;;;4.33;2.00;;;;;-149.00;100.00;66333.84;5061213;28;45494;-83
2022/11/22 02:22:30;;;;;;;;;2.00;1.00;;;;;-149.00;100.00;66333.84;5061095;28;45554;-82
2022/11/22 02:25:14;;;;;;;;;1.00;1.00;;;;;-149.00;100.00;66333.84;5024529;28;45412;-82
2022/11/22 02:27:40;;;;;;;;;1.67;1.67;;;;;-149.00;100.00;66333.84;5043131;28;45544;-80
2022/11/22 02:30:09;;;;;;;;;1.00;1.00;;;;;-149.00;100.00;66333.84;5072747;28;45533;-83
2022/11/22 02:32:37;;;;;;;;;3.67;3.00;;;;;-149.00;100.00;66333.84;5063047;28;47254;-80
2022/11/22 02:35:16;;;;;;;;;2.00;2.00;;;;;-149.00;100.00;66333.84;5062904;28;45521;-84
2022/11/22 02:37:41;;;;;;;;;2.00;2.00;;;;;-149.00;100.00;66333.84;5081281;28;45541;-80
2022/11/22 02:40:18;;;;;;;;;2.67;2.00;;;;;-149.00;100.00;66333.84;5062731;28;45715;-84
2022/11/22 02:42:48;;;;;;;;;1.67;1.67;;;;;-149.00;100.00;66333.84;5081346;28;46130;-84
2022/11/22 02:45:13;;;;;;;;;2.00;2.00;;;;;-149.00;100.00;66333.84;5062810;28;45272;-83
2022/11/22 02:47:38;;;;;;;;;3.33;3.00;;;;;-149.00;100.00;66333.84;5063012;28;45675;-84
2022/11/22 02:50:05;;;;;;;;;2.67;2.67;;;;;-149.00;100.00;66333.84;5062970;28;47249;-84
2022/11/22 02:52:30;;;;;;;;;1.33;1.00;;;;;-149.00;100.00;66333.84;5079187;28;48158;-83
2022/11/22 02:55:03;;;;;;;;;4.00;2.00;;;;;-149.00;100.00;66333.84;5081011;28;45450;-81
2022/11/22 02:57:28;;;;;;;;;2.33;2.33;;;;;-149.00;100.00;66333.84;5062927;28;45430;-81
2022/11/22 03:00:04;;;;;;;;;1.00;1.00;;;;;-149.00;100.00;66333.84;5080963;28;45580;-83
2022/11/22 03:02:29;;;;;;;;;2.00;2.00;;;;;-149.00;100.00;66333.84;5062503;28;47447;-84
2022/11/22 03:04:55;;;;;;;;;2.00;1.00;;;;;-149.00;100.00;66333.84;5062567;28;45705;-84
2022/11/22 03:07:23;;;;;;;;;2.00;2.00;;;;;-149.00;100.00;66333.84;5080807;28;45466;-84
2022/11/22 03:09:48;;;;;;;;;4.00;3.00;;;;;-149.00;100.00;66333.84;5079447;28;46871;-84
2022/11/22 03:12:14;;;;;;;;;1.00;1.00;;;;;-149.00;100.00;66333.84;5080694;28;46671;-84
2022/11/22 03:14:39;;;;;;;;;1.00;1.00;;;;;-149.00;100.00;66333.84;5062432;28;45244;-84
2022/11/22 03:17:04;;;;;;;;;1.00;1.00;;;;;-149.00;100.00;66333.84;5081185;28;45271;-82
2022/11/22 03:19:30;;;;;;;;;3.00;2.00;;;;;-149.00;100.00;66333.84;5062304;28;48515;-83
2022/11/22 03:21:55;;;;;;;;;1.00;1.00;;;;;-149.00;100.00;66333.84;5080001;28;45437;-83
2022/11/22 03:24:24;;;;;;;;;4.00;1.67;;;;;-149.00;100.00;66333.84;5061951;28;45253;-82
2022/11/22 03:26:49;;;;;;;;;1.00;1.00;;;;;-149.00;100.00;66333.84;5080613;28;45354;-83
2022/11/22 03:29:25;;;;;;;;;3.67;1.33;;;;;-149.00;100.00;66333.84;5057462;28;45540;-82
2022/11/22 03:31:59;;;;;;;;;1.33;1.33;;;;;-149.00;100.00;66333.84;5060247;28;46531;-84
2022/11/22 03:34:28;;;;;;;;;1.00;1.00;;;;;-149.00;100.00;66333.84;5041838;28;45475;-83
2022/11/22 03:36:53;;;;;;;;;4.00;2.00;;;;;-149.00;100.00;66333.84;5058523;28;45300;-84
2022/11/22 03:39:26;;;;;;;;;1.00;0.33;;;;;-149.00;100.00;66333.84;5060187;28;45282;-82
2022/11/22 03:41:55;;;;;;;;;0.33;0.33;;;;;-149.00;100.00;66333.84;5041867;28;46807;-81
2022/11/22 03:44:24;;;;;;;;;1.33;1.00;;;;;-149.00;100.00;66333.84;5041383;28;45415;-81
2022/11/22 03:46:49;;;;;;;;;3.00;1.00;;;;;-149.00;100.00;66333.84;5042014;28;45416;-82
2022/11/22 03:49:15;;;;;;;;;1.00;1.00;;;;;-149.00;100.00;66333.84;5059988;28;45406;-85
2022/11/22 03:51:40;;;;;;;;;1.67;0.67;;;;;-149.00;100.00;66333.84;5059825;28;45667;-82
2022/11/22 03:54:08;;;;;;;;;2.00;2.00;;;;;-149.00;100.00;66333.84;5059592;28;45331;-84
2022/11/22 03:56:34;;;;;;;;;1.67;1.00;;;;;-149.00;100.00;66333.84;5041982;28;45359;-84
2022/11/22 03:58:59;;;;;;;;;1.00;1.00;;;;;-149.00;100.00;66333.84;5059487;28;45217;-81
2022/11/22 04:01:31;;;;;;;;;1.00;1.00;;;;;-149.00;100.00;66333.84;5056934;28;45327;-85
2022/11/22 04:03:56;;;;;;;;;3.00;1.67;;;;;-149.00;100.00;66333.84;5041150;28;45559;-84
2022/11/22 04:06:22;;;;;;;;;2.00;2.00;;;;;-149.00;100.00;66333.84;5041800;28;45776;-82
2022/11/22 04:08:47;;;;;;;;;3.67;2.00;;;;;-149.00;100.00;66333.84;5059351;28;45426;-85
2022/11/22 04:11:12;;;;;;;;;0.33;0.33;;;;;-149.00;100.00;66333.84;5040191;28;47551;-84
2022/11/22 04:16:25;;;;;;;;;1.00;1.00;;;;;-149.00;100.00;66333.84;5059680;28;45491;-83
2022/11/22 04:18:59;;;;;;;;;1.00;1.00;;;;;-149.00;100.00;66333.84;5059536;28;45354;-83
2022/11/22 04:21:33;;;;;;;;;4.00;3.00;;;;;-149.00;100.00;66333.84;5059256;28;45464;-85
2022/11/22 04:26:49;;;;;;;;;1.33;1.33;;;;;-149.00;100.00;66333.84;5059541;28;45245;-83
2022/11/22 04:29:30;;;;;;;;;3.00;1.00;;;;;-149.00;100.00;66333.84;5041068;28;46065;-84
2022/11/22 04:34:42;;;;;;;;;3.00;2.00;;;;;-149.00;100.00;66333.84;5051262;28;45851;-82
2022/11/22 04:37:10;;;;;;;;;0.67;0.67;;;;;-149.00;100.00;66333.84;5040696;28;45900;-82
2022/11/22 04:39:38;;;;;;;;;0.33;0.33;;;;;-149.00;100.00;66333.84;5041082;28;46187;-83
2022/11/22 04:45:00;;;;;;;;;1.00;0.00;;;;;-149.00;100.00;66333.84;5058868;28;45264;-83
2022/11/22 04:52:59;;;;;;;;;1.00;1.00;;;;;-149.00;100.00;66333.84;5058713;28;45478;-84
2022/11/22 04:55:25;;;;;;;;;1.00;1.00;;;;;-149.00;100.00;66333.84;5059029;28;45476;-84
2022/11/22 04:57:50;;;;;;;;;1.00;1.00;;;;;-149.00;100.00;66333.84;5041103;28;45450;-82
2022/11/22 05:00:16;;;;;;;;;0.67;0.67;;;;;-149.00;100.00;66333.84;5040618;28;46542;-84
2022/11/22 05:02:41;;;;;;;;;1.00;1.00;;;;;-149.00;100.00;66333.84;5040168;28;47368;-82
2022/11/22 05:05:15;;;;;;;;;1.00;1.00;;;;;-149.00;100.00;66333.84;5057503;28;45315;-83
2022/11/22 05:07:43;;;;;;;;;1.00;1.00;;;;;-149.00;100.00;66333.84;5058483;28;45358;-83
2022/11/22 05:10:09;;;;;;;;;1.00;1.00;;;;;-149.00;100.00;66333.84;5040659;28;46967;-83
2022/11/22 05:12:37;;;;;;;;;1.00;1.00;;;;;-149.00;100.00;66333.84;5058336;28;45644;-83
2022/11/22 05:15:03;;;;;;;;;1.00;1.00;;;;;-149.00;100.00;66333.84;5058865;28;45383;-84
2022/11/22 05:17:28;;;;;;;;;1.00;1.00;;;;;-149.00;100.00;66333.84;5058818;28;45415;-80
2022/11/22 05:19:56;;;;;;;;;3.00;2.00;;;;;-149.00;100.00;66333.84;5058574;28;45402;-83
2022/11/22 05:23:53;;;;;;;;;1.33;1.00;;;;;-149.00;100.00;66333.84;5058413;28;45604;-84
2022/11/22 05:25:07;;;;;;;;;2.00;2.00;;;;;-149.00;100.00;66333.84;5058398;28;45429;-84
2022/11/22 05:27:32;;;;;;;;;2.00;1.00;;;;;-149.00;100.00;66333.84;5040627;28;45364;-80
2022/11/22 05:29:58;;;;;;;;;2.33;1.00;;;;;-149.00;100.00;66333.84;5069093;28;45510;-82
2022/11/22 05:32:29;;;;;;;;;1.00;1.00;;;;;-149.00;100.00;66333.84;5078751;28;45212;-83
2022/11/22 05:34:54;;;;;;;;;0.00;0.00;;;;;-149.00;100.00;66333.84;5060432;28;45470;-83
2022/11/22 05:37:20;;;;;;;;;1.00;0.00;;;;;-149.00;100.00;66333.84;5078670;28;45492;-81
2022/11/22 05:39:45;;;;;;;;;2.67;1.00;;;;;-149.00;100.00;66333.84;5078758;28;45292;-82
2022/11/22 05:42:13;;;;;;;;;0.00;0.00;;;;;-149.00;100.00;66333.84;5060352;28;47032;-84
2022/11/22 05:44:39;;;;;;;;;2.00;0.00;;;;;-149.00;100.00;66333.84;5060194;28;45896;-81
2022/11/22 05:47:04;;;;;;;;;0.00;0.00;;;;;-149.00;100.00;66333.84;5081480;28;45734;-83
2022/11/22 05:49:30;;;;;;;;;0.00;0.00;;;;;-149.00;100.00;66333.84;5064226;28;47288;-82
2022/11/22 05:51:56;;;;;;;;;3.00;2.00;;;;;-149.00;100.00;66333.84;5081881;28;45620;-84
2022/11/22 05:54:27;;;;;;;;;1.67;1.67;;;;;-149.00;100.00;66333.84;5082189;28;45315;-84
2022/11/22 05:56:53;;;;;;;;;0.00;0.00;;;;;-149.00;100.00;66333.84;5064018;28;45324;-84
2022/11/22 05:59:19;;;;;;;;;2.33;1.33;;;;;-149.00;100.00;66333.84;5063662;28;47160;-86
2022/11/22 06:01:44;;;;;;;;;1.00;1.00;;;;;-149.00;100.00;66333.84;5063703;28;46869;-84
2022/11/22 06:04:13;;;;;;;;;1.00;1.00;;;;;-149.00;100.00;66333.84;5081889;28;45229;-83
2022/11/22 06:06:38;;;;;;;;;1.00;1.00;;;;;-149.00;100.00;66333.84;5082054;28;45429;-84
2022/11/22 06:09:03;;;;;;;;;1.00;1.00;;;;;-149.00;100.00;66333.84;5081767;28;45384;-84
2022/11/22 06:11:29;;;;;;;;;1.00;1.00;;;;;-149.00;100.00;66333.84;5063528;28;48088;-83
2022/11/22 06:14:02;;;;;;;;;0.00;0.00;;;;;-149.00;100.00;66333.84;5081625;28;45408;-83
2022/11/22 06:16:27;;;;;;;;;2.00;2.00;;;;;-149.00;100.00;66333.84;5059921;28;46156;-82
2022/11/22 06:19:03;;;;;;;;;1.67;1.00;;;;;-149.00;100.00;66333.84;5050069;28;46147;-82
2022/11/22 06:21:29;;;;;;;;;2.00;1.00;;;;;-149.00;100.00;66333.84;5063352;28;47566;-81
2022/11/22 06:23:57;;;;;;;;;0.00;0.00;;;;;-149.00;100.00;66333.84;5063047;28;45323;-83
2022/11/22 06:26:23;;;;;;;;;0.00;0.00;;;;;-149.00;100.00;66333.84;5079048;28;45258;-84
2022/11/22 06:28:49;;;;;;;;;2.33;2.00;;;;;-149.00;100.00;66333.84;5081567;27;45633;-83
2022/11/22 06:31:21;;;;;;;;;1.33;1.33;;;;;-149.00;100.00;66333.84;5081436;28;45574;-82
2022/11/22 06:33:46;;;;;;;;;1.00;1.00;;;;;-149.00;100.00;66333.84;5063185;28;45453;-82
2022/11/22 06:36:17;;;;;;;;;1.00;1.00;;;;;-149.00;100.00;66333.84;5081569;28;45403;-84
2022/11/22 06:38:44;;;;;;;;;0.00;0.00;;;;;-149.00;100.00;66333.84;5080915;28;45394;-81
2022/11/22 06:41:18;;;;;;;;;1.00;1.00;;;;;-149.00;100.00;66333.84;5063036;28;48627;-81
2022/11/22 06:43:46;;;;;;;;;1.67;1.67;;;;;-149.00;100.00;66333.84;5081132;28;45474;-83
2022/11/22 06:46:15;;;;;;;;;2.33;1.00;;;;;-149.00;100.00;66333.84;5063351;28;45414;-81
2022/11/22 06:48:41;;;;;;;;;2.67;2.00;;;;;-149.00;100.00;66333.84;5080844;28;46066;-82
2022/11/22 06:51:16;;;;;;;;;2.00;2.00;;;;;-149.00;100.00;66333.84;5081143;28;45331;-81
2022/11/22 06:53:53;;;;;;;;;2.67;2.00;;;;;-149.00;100.00;66333.84;5062318;28;45366;-82
2022/11/22 06:56:29;;;;;;;;;3.67;2.00;;;;;-149.00;100.00;66333.84;5063134;28;45373;-81
2022/11/22 06:58:58;;;;;;;;;1.00;1.00;;;;;-149.00;100.00;66333.84;5066418;28;45677;-82
2022/11/22 07:01:26;;;;;;;;;2.00;2.00;;;;;-149.00;100.00;66333.84;5059402;28;45483;-81
2022/11/22 07:03:59;;;;;;;;;2.00;2.00;;;;;-149.00;100.00;66333.84;5073227;27;46404;-83
2022/11/22 07:06:38;;;;;;;;;3.00;2.00;;;;;-149.00;100.00;66333.84;5062389;27;45383;-80
2022/11/22 07:09:06;;;;;;;;;2.00;2.00;;;;;-149.00;100.00;66333.84;5070889;28;46572;-82
2022/11/22 07:11:43;;;;;;;;;2.00;2.00;;;;;-149.00;100.00;66333.84;5062339;28;47579;-82
2022/11/22 07:14:08;;;;;;;;;2.67;2.00;;;;;-149.00;100.00;66333.84;5078698;27;45430;-80
2022/11/22 07:16:34;;;;;;;;;1.00;1.00;;;;;-149.00;100.00;66333.84;5074037;28;45472;-82
2022/11/22 07:19:09;;;;;;;;;1.00;1.00;;;;;-149.00;100.00;66333.84;5079535;27;45533;-82
2022/11/22 07:21:40;;;;;;;;;2.00;1.00;;;;;-149.00;100.00;66333.84;5062001;28;47104;-83
2022/11/22 07:24:08;;;;;;;;;2.33;1.00;;;;;-149.00;100.00;66333.84;5062260;28;45881;-82
2022/11/22 07:26:36;;;;;;;;;2.67;1.67;;;;;-149.00;100.00;66333.84;5062420;28;46698;-81
2022/11/22 07:29:01;;;;;;;;;1.67;1.67;;;;;-149.00;100.00;66333.84;5080431;27;45362;-82
2022/11/22 07:31:34;;;;;;;;;1.33;1.33;;;;;-149.00;100.00;66333.84;5080425;28;46632;-84
2022/11/22 07:33:59;;;;;;;;;2.67;2.67;;;;;-149.00;100.00;66333.84;5080481;28;45265;-83
2022/11/22 07:36:28;;;;;;;;;3.33;3.00;;;;;-149.00;100.00;66333.84;5061982;28;45218;-82
2022/11/22 07:38:53;;;;;;;;;3.00;3.00;;;;;-149.00;100.00;66333.84;5061763;28;45448;-83
2022/11/22 07:41:22;;;;;;;;;1.00;1.00;;;;;-149.00;100.00;66333.84;5079619;27;46474;-83
2022/11/22 07:43:47;;;;;;;;;1.00;1.00;;;;;-149.00;100.00;66333.84;5063663;28;45460;-87
2022/11/22 07:46:28;;;;;;;;;4.33;3.00;;;;;-149.00;100.00;66333.84;5080887;28;45327;-80
2022/11/22 07:48:56;;;;;;;;;3.33;3.00;;;;;-149.00;100.00;66333.84;5065763;28;45541;-82
2022/11/22 07:51:24;;;;;;;;;4.33;4.33;;;;;-149.00;100.00;66333.84;5065748;28;45789;-82
2022/11/22 07:54:15;;;;;;;;;4.00;4.00;;;;;-149.00;100.00;66333.84;5061621;28;45262;-83
2022/11/22 07:56:41;;;;;;;;;1.33;1.33;;;;;-149.00;100.00;66333.84;5062300;28;45389;-81
2022/11/22 07:59:06;;;;;;;;;1.00;1.00;;;;;-149.00;100.00;66333.84;5061797;28;45936;-83
2022/11/22 08:01:43;;;;;;;;;1.67;1.67;;;;;-149.00;100.00;66333.84;5062241;28;48325;-83
2022/11/22 08:04:08;;;;;;;;;3.00;3.00;;;;;-149.00;100.00;66333.84;5080362;28;45314;-78
2022/11/22 08:06:34;;;;;;;;;0.33;0.33;;;;;-149.00;100.00;66333.84;5080833;28;45518;-77
2022/11/22 08:08:59;;;;;;;;;2.00;2.00;;;;;-149.00;100.00;66333.84;5076798;27;45528;-83
2022/11/22 08:11:24;;;;;;;;;3.67;2.67;;;;;-149.00;100.00;66333.84;5074087;28;46201;-82
2022/11/22 08:13:58;;;;;;;;;2.33;1.00;;;;;-149.00;100.00;66333.84;5071921;28;45473;-80
2022/11/22 08:16:35;;;;;;;;;2.67;2.67;;;;;-149.00;100.00;66333.84;5083978;27;45235;-82
2022/11/22 08:19:01;;;;;;;;;2.67;2.00;;;;;-149.00;100.00;66333.84;5053402;28;45638;-85
2022/11/22 08:21:26;;;;;;;;;1.33;1.33;;;;;-149.00;100.00;66333.84;5059913;27;46090;-80
2022/11/22 08:24:03;;;;;;;;;1.00;1.00;;;;;-149.00;100.00;66333.84;5080460;28;45149;-81
2022/11/22 08:26:29;;;;;;;;;2.00;2.00;;;;;-149.00;100.00;66333.84;5061702;28;45609;-80
2022/11/22 08:28:54;;;;;;;;;3.50;1.00;;;;;-149.00;100.00;66333.84;5053757;28;45703;-81
2022/11/22 08:31:27;;;;;;;;;3.00;1.67;;;;;-149.00;100.00;66333.84;5061190;28;47225;-82
2022/11/22 08:34:00;;;;;;;;;4.33;4.33;;;;;-149.00;100.00;66333.84;5061691;28;45523;-80
2022/11/22 08:36:37;;;;;;;;;3.00;3.00;;;;;-149.00;100.00;66333.84;5079678;28;45283;-81
2022/11/22 08:39:02;;;;;;;;;3.00;3.00;;;;;-149.00;100.00;66333.84;5066307;28;45275;-80
2022/11/22 08:41:28;;;;;;;;;5.00;4.00;;;;;-149.00;100.00;66333.84;5059277;28;47446;-80
2022/11/22 08:43:54;;;;;;;;;5.33;3.00;;;;;-149.00;100.00;66333.84;5059255;28;45439;-82
2022/11/22 08:46:19;;;;;;;;;2.67;2.67;;;;;-149.00;100.00;66333.84;5061387;28;45575;-80
2022/11/22 08:48:45;;;;;;;;;4.00;3.33;;;;;-149.00;100.00;66333.84;5080729;28;45611;-79
2022/11/22 08:51:15;;;;;;;;;1.00;1.00;;;;;-149.00;100.00;66333.84;5080365;28;45464;-82
2022/11/22 08:53:42;;;;;;;;;2.00;2.00;;;;;-149.00;100.00;66333.84;5079091;28;45343;-81
2022/11/22 08:56:16;;;;;;;;;2.33;2.33;;;;;-149.00;100.00;66333.84;5079478;28;45518;-81
2022/11/22 08:58:42;;;;;;;;;4.67;3.67;;;;;-149.00;100.00;66333.84;5063887;28;46185;-76
2022/11/22 09:01:13;;;;;;;;;2.00;2.00;;;;;-149.00;100.00;66333.84;5080155;28;46135;-76
2022/11/22 09:03:39;;;;;;;;;1.67;1.67;;;;;-149.00;100.00;66333.84;5080142;28;45462;-76
2022/11/22 09:06:07;;;;;;;;;4.00;3.00;;;;;-149.00;100.00;66333.84;5082234;28;45561;-76
2022/11/22 09:08:34;;;;;;;;;3.00;3.00;;;;;-149.00;100.00;66333.84;5063259;28;46257;-76
2022/11/22 09:11:00;;;;;;;;;4.00;3.00;;;;;-149.00;100.00;66333.84;5078761;28;45390;-76
2022/11/22 09:13:26;;;;;;;;;2.33;2.33;;;;;-149.00;100.00;66333.84;5080377;28;45557;-76
2022/11/22 09:15:52;;;;;;;;;4.00;3.00;;;;;-149.00;100.00;66333.84;5078548;28;45390;-76
2022/11/22 09:18:17;;;;;;;;;5.00;3.00;;;;;-149.00;100.00;66333.84;5077510;28;45336;-77
2022/11/22 09:20:42;;;;;;;;;3.00;3.00;;;;;-149.00;100.00;66333.84;5079008;28;45621;-77
2022/11/22 09:23:08;;;;;;;;;2.67;2.00;;;;;-149.00;100.00;66333.84;5086398;28;45493;-77
2022/11/22 09:25:33;;;;;;;;;3.00;3.00;;;;;-149.00;100.00;66333.84;5083368;28;45353;-77
2022/11/22 09:28:01;;;;;;;;;5.00;3.00;;;;;-149.00;100.00;66333.84;5082420;28;45418;-76
2022/11/22 09:30:26;;;;;;;;;2.67;2.67;;;;;-149.00;100.00;66333.84;5087196;27;46236;-78
2022/11/22 09:32:52;;;;;;;;;5.00;2.67;;;;;-149.00;100.00;66333.84;5069108;28;45979;-78
2022/11/22 09:35:19;;;;;;;;;3.00;1.33;;;;;-149.00;100.00;66333.84;5087063;28;45133;-78
2022/11/22 09:37:44;;;;;;;;;3.00;3.00;;;;;-149.00;100.00;66333.84;5066428;28;46139;-76
2022/11/22 09:40:10;;;;;;;;;3.00;3.00;;;;;-149.00;100.00;66333.84;5087886;28;45252;-76
2022/11/22 09:43:01;;;;;;;;;4.00;3.00;;;;;-149.00;100.00;66333.84;5083239;28;45375;-77
2022/11/22 09:45:34;;;;;;;;;3.67;3.00;;;;;-149.00;100.00;66333.84;5085918;28;45325;-78
2022/11/22 09:48:25;;;;;;;;;6.33;2.00;;;;;-149.00;100.00;66333.84;5087009;28;45318;-78
2022/11/22 09:51:08;;;;;;;;;5.00;4.33;;;;;-149.00;100.00;66333.84;5065944;28;47157;-78
2022/11/22 09:53:44;;;;;;;;;2.00;2.00;;;;;-149.00;100.00;66333.84;5063845;28;46123;-77
2022/11/22 09:56:17;;;;;;;;;2.00;2.00;;;;;-149.00;100.00;66333.84;5064142;28;45387;-76
2022/11/22 09:58:54;;;;;;;;;3.00;3.00;;;;;-149.00;100.00;66333.84;5082459;28;45347;-77
2022/11/22 10:01:26;;;;;;;;;4.33;2.33;;;;;-149.00;100.00;66333.84;5082265;28;45452;-78
2022/11/22 10:04:27;;;;;;;;;2.00;1.67;;;;;-149.00;100.00;66333.84;5082355;28;45229;-78
2022/11/22 10:06:57;;;;;;;;;3.33;3.33;;;;;-149.00;100.00;66333.84;5082861;28;45280;-78
2022/11/22 10:09:44;;;;;;;;;2.00;2.00;;;;;-149.00;100.00;66333.84;5081600;28;46744;-77
2022/11/22 10:12:18;;;;;;;;;5.33;5.00;;;;;-149.00;100.00;66333.84;5063567;28;48138;-77
2022/11/22 10:15:01;;;;;;;;;4.33;2.67;;;;;-149.00;100.00;66333.84;5081785;28;45394;-79
2022/11/22 10:17:45;;;;;;;;;3.33;3.33;;;;;-149.00;100.00;66333.84;5082028;28;45380;-78
2022/11/22 10:20:16;;;;;;;;;5.00;2.33;;;;;-149.00;100.00;66333.84;5063845;28;46200;-78
2022/11/22 10:22:42;;;;;;;;;3.67;2.67;;;;;-149.00;100.00;66333.84;5081670;28;45374;-78
2022/11/22 10:25:18;;;;;;;;;2.67;2.67;;;;;-149.00;100.00;66333.84;5081736;28;45494;-78
2022/11/22 10:27:47;;;;;;;;;2.00;2.00;;;;;-149.00;100.00;66333.84;5063346;28;45491;-78
2022/11/22 10:30:17;;;;;;;;;6.00;3.00;;;;;-149.00;100.00;66333.84;5081296;28;45353;-76
2022/11/22 10:32:55;;;;;;;;;5.67;4.67;;;;;-149.00;100.00;66333.84;5080280;28;46335;-79
2022/11/22 10:35:49;;;;;;;;;3.33;2.33;;;;;-149.00;100.00;66333.84;5082088;28;45236;-77
2022/11/22 10:38:53;;;;;;;;;2.00;2.00;;;;;-149.00;100.00;66333.84;5064385;28;45571;-78
2022/11/22 10:41:33;;;;;;;;;4.00;3.00;;;;;-149.00;100.00;66333.84;5073939;28;45492;-78
2022/11/22 10:44:01;;;;;;;;;6.00;5.67;;;;;-149.00;100.00;66333.84;5082166;28;45577;-78
2022/11/22 10:46:54;;;;;;;;;2.00;2.00;;;;;-149.00;100.00;66333.84;5063733;28;45367;-78
2022/11/22 10:49:27;;;;;;;;;3.00;3.00;;;;;-149.00;100.00;66333.84;5080007;28;45341;-79
2022/11/22 10:52:10;;;;;;;;;3.33;2.00;;;;;-149.00;100.00;66333.84;5060493;28;47312;-78
2022/11/22 10:55:08;;;;;;;;;3.00;2.00;;;;;-149.00;100.00;66333.84;5068716;28;45379;-78
2022/11/22 10:58:06;;;;;;;;;4.67;2.00;;;;;-149.00;100.00;66333.84;5081040;28;45379;-76
2022/11/22 11:00:35;;;;;;;;;1.33;1.33;;;;;-149.00;100.00;66333.84;5077005;28;45336;-77
2022/11/22 11:03:07;;;;;;;;;7.00;3.00;;;;;-149.00;100.00;66333.84;5063042;28;46326;-77
2022/11/22 11:05:50;;;;;;;;;4.33;2.00;;;;;-149.00;100.00;66333.84;5081223;28;45374;-78
2022/11/22 11:08:40;;;;;;;;;3.00;3.00;;;;;-149.00;100.00;66333.84;5068574;28;45398;-75
2022/11/22 11:11:05;;;;;;;;;3.33;3.00;;;;;-149.00;100.00;66333.84;5081314;28;45271;-76
2022/11/22 11:13:37;;;;;;;;;3.67;3.00;;;;;-149.00;100.00;66333.84;5080924;28;45334;-76
2022/11/22 11:16:09;;;;;;;;;2.00;2.00;;;;;-149.00;100.00;66333.84;5062541;28;48572;-77
2022/11/22 11:18:42;;;;;;;;;2.67;2.00;;;;;-149.00;100.00;66333.84;5080724;28;45342;-77
2022/11/22 11:21:12;;;;;;;;;3.00;2.00;;;;;-149.00;100.00;66333.84;5083577;28;45298;-77
2022/11/22 11:23:37;;;;;;;;;3.67;2.67;;;;;-149.00;100.00;66333.84;5081528;28;45274;-78
2022/11/22 11:26:31;;;;;;;;;1.67;1.67;;;;;-149.00;100.00;66333.84;5081192;28;48366;-78
2022/11/22 11:29:17;;;;;;;;;3.67;3.67;;;;;-149.00;100.00;66333.84;5062706;28;45729;-77
2022/11/22 11:31:49;;;;;;;;;3.00;3.00;;;;;-149.00;100.00;66333.84;5022529;28;45347;-77
2022/11/22 11:34:27;;;;;;;;;5.00;2.00;;;;;-149.00;100.00;66333.84;5081219;28;45307;-82
2022/11/22 11:36:57;;;;;;;;;2.00;2.00;;;;;-149.00;100.00;66333.84;5062124;28;48349;-81
2022/11/22 11:39:33;;;;;;;;;3.33;3.33;;;;;-149.00;100.00;66333.84;5080728;28;45269;-83